sensor_id;sensor_type;location;lat;lon;timestamp;pressure;altitude;pressure_sealevel;temperature;humidity
550;BME280;20066;48.764;9.176;2024-02-26T00:02:26;96313.38;;;10.26;49.67
550;BME280;20066;48.764;9.176;2024-02-26T00:04:54;96314.66;;;11.22;46.62
550;BME280;20066;48.764;9.176;2024-02-26T00:07:22;96311.88;;;11.60;46.18
550;BME280;20066;48.764;9.176;2024-02-26T00:09:50;96305.09;;;11.21;46.18
550;BME280;20066;48.764;9.176;2024-02-26T00:12:18;96306.22;;;11.46;46.32
550;BME280;20066;48.764;9.176;2024-02-26T00:14:46;96305.75;;;11.26;47.46
550;BME280;20066;48.764;9.176;2024-02-26T00:17:16;96306.59;;;11.35;47.80
550;BME280;20066;48.764;9.176;2024-02-26T00:19:45;96300.69;;;11.15;47.69
550;BME280;20066;48.764;9.176;2024-02-26T00:22:14;96302.00;;;11.57;46.84
550;BME280;20066;48.764;9.176;2024-02-26T00:24:42;96294.03;;;11.19;47.92
550;BME280;20066;48.764;9.176;2024-02-26T00:27:10;96304.16;;;10.52;49.48
550;BME280;20066;48.764;9.176;2024-02-26T00:29:38;96297.59;;;10.53;49.79
550;BME280;20066;48.764;9.176;2024-02-26T00:32:06;96306.13;;;11.49;47.79
550;BME280;20066;48.764;9.176;2024-02-26T00:34:34;96300.63;;;11.40;47.27
550;BME280;20066;48.764;9.176;2024-02-26T00:37:05;96301.00;;;11.17;48.56
550;BME280;20066;48.764;9.176;2024-02-26T00:39:33;96294.88;;;11.64;47.15
550;BME280;20066;48.764;9.176;2024-02-26T00:42:01;96296.53;;;11.83;46.76
550;BME280;20066;48.764;9.176;2024-02-26T00:44:29;96299.53;;;11.85;46.69
550;BME280;20066;48.764;9.176;2024-02-26T00:46:58;96286.63;;;10.86;48.20
550;BME280;20066;48.764;9.176;2024-02-26T00:49:26;96289.97;;;11.02;47.69
550;BME280;20066;48.764;9.176;2024-02-26T00:51:55;96301.06;;;11.39;47.44
550;BME280;20066;48.764;9.176;2024-02-26T00:54:25;96282.97;;;11.39;47.62
550;BME280;20066;48.764;9.176;2024-02-26T00:56:53;96287.25;;;11.49;48.04
550;BME280;20066;48.764;9.176;2024-02-26T00:59:21;96295.25;;;11.75;47.16
550;BME280;20066;48.764;9.176;2024-02-26T01:01:49;96294.03;;;11.54;47.47
550;BME280;20066;48.764;9.176;2024-02-26T01:04:17;96293.41;;;11.03;48.54
550;BME280;20066;48.764;9.176;2024-02-26T01:06:46;96279.84;;;10.94;49.49
550;BME280;20066;48.764;9.176;2024-02-26T01:09:14;96284.38;;;10.59;49.90
550;BME280;20066;48.764;9.176;2024-02-26T01:11:45;96289.22;;;10.64;50.13
550;BME280;20066;48.764;9.176;2024-02-26T01:14:13;96306.63;;;10.05;52.03
550;BME280;20066;48.764;9.176;2024-02-26T01:16:41;96273.19;;;10.60;50.42
550;BME280;20066;48.764;9.176;2024-02-26T01:19:10;96284.16;;;10.66;50.29
550;BME280;20066;48.764;9.176;2024-02-26T01:21:38;96278.47;;;10.51;50.37
550;BME280;20066;48.764;9.176;2024-02-26T01:24:06;96267.88;;;11.07;48.52
550;BME280;20066;48.764;9.176;2024-02-26T01:26:34;96284.13;;;9.57;52.28
550;BME280;20066;48.764;9.176;2024-02-26T01:29:04;96279.34;;;10.48;50.46
550;BME280;20066;48.764;9.176;2024-02-26T01:31:32;96278.50;;;11.23;48.34
550;BME280;20066;48.764;9.176;2024-02-26T01:34:00;96280.91;;;11.43;47.85
550;BME280;20066;48.764;9.176;2024-02-26T01:36:29;96286.25;;;11.69;46.95
550;BME280;20066;48.764;9.176;2024-02-26T01:38:57;96281.03;;;11.74;47.08
550;BME280;20066;48.764;9.176;2024-02-26T01:41:25;96288.22;;;11.55;46.96
550;BME280;20066;48.764;9.176;2024-02-26T01:43:53;96305.88;;;10.46;50.27
550;BME280;20066;48.764;9.176;2024-02-26T01:46:23;96316.88;;;10.23;51.01
550;BME280;20066;48.764;9.176;2024-02-26T01:48:51;96310.28;;;10.53;50.28
550;BME280;20066;48.764;9.176;2024-02-26T01:51:19;96308.00;;;11.27;48.73
550;BME280;20066;48.764;9.176;2024-02-26T01:53:48;96314.03;;;11.18;48.59
550;BME280;20066;48.764;9.176;2024-02-26T01:56:17;96320.56;;;11.30;48.97
550;BME280;20066;48.764;9.176;2024-02-26T01:58:45;96311.25;;;11.09;49.49
550;BME280;20066;48.764;9.176;2024-02-26T02:01:15;96335.06;;;10.19;51.98
550;BME280;20066;48.764;9.176;2024-02-26T02:03:47;96333.84;;;10.49;51.15
550;BME280;20066;48.764;9.176;2024-02-26T02:06:16;96335.41;;;9.30;53.62
550;BME280;20066;48.764;9.176;2024-02-26T02:08:44;96336.69;;;9.71;53.36
550;BME280;20066;48.764;9.176;2024-02-26T02:11:12;96345.66;;;10.10;51.62
550;BME280;20066;48.764;9.176;2024-02-26T02:13:41;96342.28;;;9.48;53.18
550;BME280;20066;48.764;9.176;2024-02-26T02:16:09;96340.09;;;8.94;52.67
550;BME280;20066;48.764;9.176;2024-02-26T02:18:38;96338.16;;;9.11;51.25
550;BME280;20066;48.764;9.176;2024-02-26T02:21:08;96337.91;;;10.53;47.71
550;BME280;20066;48.764;9.176;2024-02-26T02:23:36;96336.50;;;10.36;47.07
550;BME280;20066;48.764;9.176;2024-02-26T02:26:04;96330.72;;;10.75;47.82
550;BME280;20066;48.764;9.176;2024-02-26T02:28:32;96341.72;;;10.81;46.49
550;BME280;20066;48.764;9.176;2024-02-26T02:31:00;96344.91;;;9.80;47.44
550;BME280;20066;48.764;9.176;2024-02-26T02:33:29;96342.69;;;9.46;46.19
550;BME280;20066;48.764;9.176;2024-02-26T02:35:57;96334.50;;;10.78;44.25
550;BME280;20066;48.764;9.176;2024-02-26T02:38:27;96331.88;;;10.36;44.96
550;BME280;20066;48.764;9.176;2024-02-26T02:40:56;96330.19;;;11.06;44.85
550;BME280;20066;48.764;9.176;2024-02-26T02:43:24;96320.28;;;11.15;44.73
550;BME280;20066;48.764;9.176;2024-02-26T02:45:52;96324.72;;;9.88;45.54
550;BME280;20066;48.764;9.176;2024-02-26T02:48:28;96315.94;;;11.31;43.64
550;BME280;20066;48.764;9.176;2024-02-26T02:50:57;96320.34;;;11.37;44.33
550;BME280;20066;48.764;9.176;2024-02-26T02:53:27;96326.41;;;11.16;45.81
550;BME280;20066;48.764;9.176;2024-02-26T02:55:55;96343.34;;;11.04;47.72
550;BME280;20066;48.764;9.176;2024-02-26T02:58:23;96342.66;;;10.74;47.96
550;BME280;20066;48.764;9.176;2024-02-26T03:00:51;96350.53;;;10.69;47.96
550;BME280;20066;48.764;9.176;2024-02-26T03:03:22;96357.72;;;10.18;47.97
550;BME280;20066;48.764;9.176;2024-02-26T03:05:51;96334.06;;;11.17;46.24
550;BME280;20066;48.764;9.176;2024-02-26T03:08:19;96328.22;;;11.32;46.70
550;BME280;20066;48.764;9.176;2024-02-26T03:10:49;96333.31;;;10.79;48.34
550;BME280;20066;48.764;9.176;2024-02-26T03:13:17;96334.53;;;11.50;46.68
550;BME280;20066;48.764;9.176;2024-02-26T03:15:46;96331.63;;;11.45;46.75
550;BME280;20066;48.764;9.176;2024-02-26T03:18:14;96337.28;;;11.25;47.69
550;BME280;20066;48.764;9.176;2024-02-26T03:20:42;96334.75;;;11.56;46.46
550;BME280;20066;48.764;9.176;2024-02-26T03:23:11;96326.75;;;11.52;46.29
550;BME280;20066;48.764;9.176;2024-02-26T03:25:42;96336.47;;;11.50;46.52
550;BME280;20066;48.764;9.176;2024-02-26T03:28:11;96331.50;;;11.74;46.35
550;BME280;20066;48.764;9.176;2024-02-26T03:30:39;96331.16;;;11.72;46.22
550;BME280;20066;48.764;9.176;2024-02-26T03:33:08;96328.91;;;11.92;45.61
550;BME280;20066;48.764;9.176;2024-02-26T03:35:36;96320.72;;;11.74;46.36
550;BME280;20066;48.764;9.176;2024-02-26T03:38:04;96321.34;;;11.99;45.61
550;BME280;20066;48.764;9.176;2024-02-26T03:40:33;96312.66;;;11.95;46.03
550;BME280;20066;48.764;9.176;2024-02-26T03:43:01;96302.91;;;11.98;46.03
550;BME280;20066;48.764;9.176;2024-02-26T03:45:34;96295.31;;;12.06;45.73
550;BME280;20066;48.764;9.176;2024-02-26T03:48:03;96289.88;;;11.28;47.59
550;BME280;20066;48.764;9.176;2024-02-26T03:50:31;96293.50;;;10.99;48.38
550;BME280;20066;48.764;9.176;2024-02-26T03:52:59;96296.25;;;11.21;48.31
550;BME280;20066;48.764;9.176;2024-02-26T03:55:28;96288.41;;;11.27;48.44
550;BME280;20066;48.764;9.176;2024-02-26T03:57:56;96299.47;;;11.29;48.24
550;BME280;20066;48.764;9.176;2024-02-26T04:00:25;96309.09;;;9.99;53.14
550;BME280;20066;48.764;9.176;2024-02-26T04:02:57;96305.50;;;10.19;52.76
550;BME280;20066;48.764;9.176;2024-02-26T04:05:25;96300.50;;;10.97;50.32
550;BME280;20066;48.764;9.176;2024-02-26T04:07:53;96303.47;;;11.58;49.07
550;BME280;20066;48.764;9.176;2024-02-26T04:10:22;96282.44;;;11.79;48.40
550;BME280;20066;48.764;9.176;2024-02-26T04:12:50;96278.22;;;11.43;49.46
550;BME280;20066;48.764;9.176;2024-02-26T04:15:18;96277.50;;;11.43;49.43
550;BME280;20066;48.764;9.176;2024-02-26T04:17:46;96285.59;;;10.16;51.39
550;BME280;20066;48.764;9.176;2024-02-26T04:20:15;96280.78;;;11.12;49.38
550;BME280;20066;48.764;9.176;2024-02-26T04:22:44;96293.84;;;11.48;48.09
550;BME280;20066;48.764;9.176;2024-02-26T04:25:12;96285.78;;;11.36;47.50
550;BME280;20066;48.764;9.176;2024-02-26T04:27:40;96295.28;;;11.28;47.54
550;BME280;20066;48.764;9.176;2024-02-26T04:30:09;96300.38;;;11.13;48.38
550;BME280;20066;48.764;9.176;2024-02-26T04:32:37;96302.63;;;11.14;48.21
550;BME280;20066;48.764;9.176;2024-02-26T04:35:06;96310.50;;;9.75;52.59
550;BME280;20066;48.764;9.176;2024-02-26T04:37:36;96303.72;;;9.99;52.43
550;BME280;20066;48.764;9.176;2024-02-26T04:40:06;96296.75;;;9.44;53.87
550;BME280;20066;48.764;9.176;2024-02-26T04:42:34;96305.81;;;10.21;52.33
550;BME280;20066;48.764;9.176;2024-02-26T04:45:02;96304.69;;;10.47;51.15
550;BME280;20066;48.764;9.176;2024-02-26T04:47:30;96306.09;;;11.02;50.25
550;BME280;20066;48.764;9.176;2024-02-26T04:49:59;96307.25;;;11.14;49.78
550;BME280;20066;48.764;9.176;2024-02-26T04:52:27;96300.06;;;10.98;50.47
550;BME280;20066;48.764;9.176;2024-02-26T04:54:57;96300.41;;;10.08;50.61
550;BME280;20066;48.764;9.176;2024-02-26T04:57:26;96299.03;;;9.29;51.12
550;BME280;20066;48.764;9.176;2024-02-26T04:59:55;96302.56;;;10.67;48.25
550;BME280;20066;48.764;9.176;2024-02-26T05:02:23;96305.50;;;11.33;47.39
550;BME280;20066;48.764;9.176;2024-02-26T05:04:51;96296.19;;;9.04;51.30
550;BME280;20066;48.764;9.176;2024-02-26T05:07:19;96296.28;;;9.62;50.18
550;BME280;20066;48.764;9.176;2024-02-26T05:09:47;96304.19;;;10.23;49.01
550;BME280;20066;48.764;9.176;2024-02-26T05:12:18;96298.56;;;10.05;49.67
550;BME280;20066;48.764;9.176;2024-02-26T05:14:46;96309.75;;;10.03;49.73
550;BME280;20066;48.764;9.176;2024-02-26T05:17:14;96310.88;;;9.90;50.29
550;BME280;20066;48.764;9.176;2024-02-26T05:19:42;96313.94;;;10.46;48.69
550;BME280;20066;48.764;9.176;2024-02-26T05:22:10;96310.19;;;10.94;47.61
550;BME280;20066;48.764;9.176;2024-02-26T05:24:39;96311.06;;;10.78;48.24
550;BME280;20066;48.764;9.176;2024-02-26T05:27:07;96321.06;;;10.65;48.18
550;BME280;20066;48.764;9.176;2024-02-26T05:29:36;96305.69;;;11.38;46.93
550;BME280;20066;48.764;9.176;2024-02-26T05:32:06;96316.13;;;11.49;46.81
550;BME280;20066;48.764;9.176;2024-02-26T05:34:34;96324.59;;;11.00;47.00
550;BME280;20066;48.764;9.176;2024-02-26T05:37:02;96334.63;;;10.87;47.43
550;BME280;20066;48.764;9.176;2024-02-26T05:39:30;96354.91;;;11.39;47.52
550;BME280;20066;48.764;9.176;2024-02-26T05:41:57;96362.78;;;11.33;49.31
550;BME280;20066;48.764;9.176;2024-02-26T05:44:26;96365.81;;;11.35;49.14
550;BME280;20066;48.764;9.176;2024-02-26T05:46:56;96370.44;;;9.72;50.19
550;BME280;20066;48.764;9.176;2024-02-26T05:49:24;96358.91;;;10.83;50.30
550;BME280;20066;48.764;9.176;2024-02-26T05:51:52;96370.16;;;10.40;50.96
550;BME280;20066;48.764;9.176;2024-02-26T05:54:21;96363.06;;;10.34;51.29
550;BME280;20066;48.764;9.176;2024-02-26T05:56:49;96370.94;;;10.66;51.80
550;BME280;20066;48.764;9.176;2024-02-26T05:59:17;96365.25;;;9.94;52.49
550;BME280;20066;48.764;9.176;2024-02-26T06:01:46;96362.22;;;10.21;54.77
550;BME280;20066;48.764;9.176;2024-02-26T06:04:16;96359.34;;;10.69;53.73
550;BME280;20066;48.764;9.176;2024-02-26T06:06:44;96363.88;;;10.72;52.69
550;BME280;20066;48.764;9.176;2024-02-26T06:09:13;96365.19;;;10.26;53.99
550;BME280;20066;48.764;9.176;2024-02-26T06:11:41;96365.47;;;10.70;52.96
550;BME280;20066;48.764;9.176;2024-02-26T06:14:09;96370.34;;;10.88;52.53
550;BME280;20066;48.764;9.176;2024-02-26T06:16:39;96376.84;;;10.61;53.43
550;BME280;20066;48.764;9.176;2024-02-26T06:19:07;96376.72;;;10.39;53.36
550;BME280;20066;48.764;9.176;2024-02-26T06:21:40;96378.97;;;10.41;53.42
550;BME280;20066;48.764;9.176;2024-02-26T06:24:08;96381.31;;;10.26;54.40
550;BME280;20066;48.764;9.176;2024-02-26T06:26:36;96369.16;;;11.01;52.53
550;BME280;20066;48.764;9.176;2024-02-26T06:29:04;96381.75;;;11.17;52.80
550;BME280;20066;48.764;9.176;2024-02-26T06:31:32;96378.41;;;10.88;53.07
550;BME280;20066;48.764;9.176;2024-02-26T06:34:00;96384.19;;;10.99;53.29
550;BME280;20066;48.764;9.176;2024-02-26T06:36:28;96379.38;;;10.81;53.36
550;BME280;20066;48.764;9.176;2024-02-26T06:38:59;96376.47;;;11.01;52.92
550;BME280;20066;48.764;9.176;2024-02-26T06:41:27;96388.84;;;11.11;53.24
550;BME280;20066;48.764;9.176;2024-02-26T06:43:56;96390.56;;;10.92;54.88
550;BME280;20066;48.764;9.176;2024-02-26T06:46:24;96393.66;;;11.29;53.71
550;BME280;20066;48.764;9.176;2024-02-26T06:48:55;96396.78;;;11.40;53.43
550;BME280;20066;48.764;9.176;2024-02-26T06:51:23;96401.75;;;11.41;53.46
550;BME280;20066;48.764;9.176;2024-02-26T06:53:52;96411.66;;;11.32;53.94
550;BME280;20066;48.764;9.176;2024-02-26T06:56:21;96406.91;;;11.36;53.47
550;BME280;20066;48.764;9.176;2024-02-26T06:58:49;96420.25;;;11.14;54.44
550;BME280;20066;48.764;9.176;2024-02-26T07:01:18;96418.00;;;11.38;53.53
550;BME280;20066;48.764;9.176;2024-02-26T07:03:45;96432.84;;;10.92;55.02
550;BME280;20066;48.764;9.176;2024-02-26T07:06:13;96434.25;;;11.09;54.67
550;BME280;20066;48.764;9.176;2024-02-26T07:08:41;96428.22;;;11.30;54.08
550;BME280;20066;48.764;9.176;2024-02-26T07:11:10;96429.72;;;11.69;52.77
550;BME280;20066;48.764;9.176;2024-02-26T07:13:40;96433.38;;;11.75;52.36
550;BME280;20066;48.764;9.176;2024-02-26T07:16:09;96440.16;;;11.67;53.08
550;BME280;20066;48.764;9.176;2024-02-26T07:18:37;96448.34;;;11.76;53.00
550;BME280;20066;48.764;9.176;2024-02-26T07:21:05;96442.44;;;11.81;53.41
550;BME280;20066;48.764;9.176;2024-02-26T07:23:33;96442.88;;;11.54;54.71
550;BME280;20066;48.764;9.176;2024-02-26T07:26:01;96442.97;;;11.76;53.72
550;BME280;20066;48.764;9.176;2024-02-26T07:28:30;96444.09;;;12.01;52.64
550;BME280;20066;48.764;9.176;2024-02-26T07:30:59;96447.88;;;12.03;52.60
550;BME280;20066;48.764;9.176;2024-02-26T07:33:27;96442.09;;;11.79;52.95
550;BME280;20066;48.764;9.176;2024-02-26T07:35:55;96449.75;;;11.68;53.11
550;BME280;20066;48.764;9.176;2024-02-26T07:38:23;96453.53;;;10.66;56.30
550;BME280;20066;48.764;9.176;2024-02-26T07:41:07;96453.66;;;11.42;54.40
550;BME280;20066;48.764;9.176;2024-02-26T07:43:36;96455.56;;;11.67;53.31
550;BME280;20066;48.764;9.176;2024-02-26T07:46:06;96451.16;;;11.60;54.00
550;BME280;20066;48.764;9.176;2024-02-26T07:48:34;96452.75;;;11.95;53.33
550;BME280;20066;48.764;9.176;2024-02-26T07:51:03;96464.28;;;11.96;53.13
550;BME280;20066;48.764;9.176;2024-02-26T07:53:31;96469.34;;;12.28;52.28
550;BME280;20066;48.764;9.176;2024-02-26T07:55:59;96468.78;;;11.99;53.54
550;BME280;20066;48.764;9.176;2024-02-26T07:58:27;96470.97;;;12.26;52.58
550;BME280;20066;48.764;9.176;2024-02-26T08:00:55;96466.63;;;12.41;52.22
550;BME280;20066;48.764;9.176;2024-02-26T08:03:24;96460.41;;;12.53;52.10
550;BME280;20066;48.764;9.176;2024-02-26T08:05:52;96455.69;;;12.45;52.98
550;BME280;20066;48.764;9.176;2024-02-26T08:08:22;96452.69;;;12.86;51.47
550;BME280;20066;48.764;9.176;2024-02-26T08:10:49;96446.22;;;13.05;51.01
550;BME280;20066;48.764;9.176;2024-02-26T08:13:18;96448.16;;;12.40;52.71
550;BME280;20066;48.764;9.176;2024-02-26T08:15:46;96447.66;;;12.75;51.07
550;BME280;20066;48.764;9.176;2024-02-26T08:18:14;96447.66;;;12.32;52.04
550;BME280;20066;48.764;9.176;2024-02-26T08:20:44;96445.59;;;13.01;50.66
550;BME280;20066;48.764;9.176;2024-02-26T08:23:12;96450.25;;;12.01;51.42
550;BME280;20066;48.764;9.176;2024-02-26T08:25:40;96446.56;;;12.64;50.08
550;BME280;20066;48.764;9.176;2024-02-26T08:28:08;96445.53;;;13.23;48.77
550;BME280;20066;48.764;9.176;2024-02-26T08:30:37;96444.66;;;12.95;49.87
550;BME280;20066;48.764;9.176;2024-02-26T08:33:05;96438.75;;;13.09;48.76
550;BME280;20066;48.764;9.176;2024-02-26T08:35:33;96444.09;;;13.31;48.06
550;BME280;20066;48.764;9.176;2024-02-26T08:38:03;96451.47;;;13.09;47.63
550;BME280;20066;48.764;9.176;2024-02-26T08:40:31;96455.53;;;13.44;46.68
550;BME280;20066;48.764;9.176;2024-02-26T08:43:00;96461.22;;;13.06;46.75
550;BME280;20066;48.764;9.176;2024-02-26T08:45:29;96456.88;;;13.09;45.46
550;BME280;20066;48.764;9.176;2024-02-26T08:47:58;96457.16;;;13.82;44.63
550;BME280;20066;48.764;9.176;2024-02-26T08:50:26;96462.47;;;11.68;46.56
550;BME280;20066;48.764;9.176;2024-02-26T08:52:54;96458.72;;;13.21;44.42
550;BME280;20066;48.764;9.176;2024-02-26T08:55:25;96455.31;;;13.70;43.97
550;BME280;20066;48.764;9.176;2024-02-26T08:57:52;96459.78;;;14.04;42.98
550;BME280;20066;48.764;9.176;2024-02-26T09:00:21;96458.22;;;13.04;45.57
550;BME280;20066;48.764;9.176;2024-02-26T09:02:49;96460.44;;;13.37;44.70
550;BME280;20066;48.764;9.176;2024-02-26T09:05:17;96467.03;;;13.27;45.46
550;BME280;20066;48.764;9.176;2024-02-26T09:07:45;96462.53;;;13.33;44.85
550;BME280;20066;48.764;9.176;2024-02-26T09:10:14;96465.38;;;13.29;44.89
550;BME280;20066;48.764;9.176;2024-02-26T09:12:43;96469.78;;;13.05;45.11
550;BME280;20066;48.764;9.176;2024-02-26T09:15:11;96470.56;;;13.14;45.02
550;BME280;20066;48.764;9.176;2024-02-26T09:17:39;96468.44;;;12.88;45.03
550;BME280;20066;48.764;9.176;2024-02-26T09:20:07;96464.44;;;12.92;45.78
550;BME280;20066;48.764;9.176;2024-02-26T09:22:39;96461.31;;;12.37;46.14
550;BME280;20066;48.764;9.176;2024-02-26T09:25:07;96458.78;;;12.56;45.76
550;BME280;20066;48.764;9.176;2024-02-26T09:27:36;96462.81;;;12.95;45.49
550;BME280;20066;48.764;9.176;2024-02-26T09:30:11;96466.97;;;13.18;44.97
550;BME280;20066;48.764;9.176;2024-02-26T09:32:40;96468.19;;;12.51;45.37
550;BME280;20066;48.764;9.176;2024-02-26T09:35:08;96472.91;;;13.34;44.10
550;BME280;20066;48.764;9.176;2024-02-26T09:37:36;96478.78;;;13.11;44.56
550;BME280;20066;48.764;9.176;2024-02-26T09:40:05;96486.22;;;13.60;43.84
550;BME280;20066;48.764;9.176;2024-02-26T09:42:34;96482.50;;;13.66;43.65
550;BME280;20066;48.764;9.176;2024-02-26T09:45:05;96477.41;;;13.37;44.23
550;BME280;20066;48.764;9.176;2024-02-26T09:47:37;96475.69;;;13.22;44.74
550;BME280;20066;48.764;9.176;2024-02-26T09:50:09;96480.94;;;12.94;44.99
550;BME280;20066;48.764;9.176;2024-02-26T09:52:41;96483.00;;;13.12;45.27
550;BME280;20066;48.764;9.176;2024-02-26T09:55:09;96482.34;;;13.70;44.15
550;BME280;20066;48.764;9.176;2024-02-26T09:57:37;96481.81;;;13.53;44.44
550;BME280;20066;48.764;9.176;2024-02-26T10:00:10;96483.69;;;12.82;45.04
550;BME280;20066;48.764;9.176;2024-02-26T10:02:45;96485.75;;;13.52;44.52
550;BME280;20066;48.764;9.176;2024-02-26T10:05:14;96486.94;;;15.28;40.55
550;BME280;20066;48.764;9.176;2024-02-26T10:07:45;96497.63;;;15.97;39.91
550;BME280;20066;48.764;9.176;2024-02-26T10:10:13;96504.09;;;17.01;38.47
550;BME280;20066;48.764;9.176;2024-02-26T10:12:41;96506.22;;;17.85;35.60
550;BME280;20066;48.764;9.176;2024-02-26T10:15:09;96498.34;;;17.22;35.74
550;BME280;20066;48.764;9.176;2024-02-26T10:17:38;96500.47;;;17.33;35.92
550;BME280;20066;48.764;9.176;2024-02-26T10:20:15;96504.06;;;16.86;36.44
550;BME280;20066;48.764;9.176;2024-02-26T10:22:45;96518.50;;;15.82;37.27
550;BME280;20066;48.764;9.176;2024-02-26T10:25:14;96515.44;;;16.84;36.37
550;BME280;20066;48.764;9.176;2024-02-26T10:27:42;96514.63;;;17.87;34.74
550;BME280;20066;48.764;9.176;2024-02-26T10:30:17;96506.25;;;17.55;35.44
550;BME280;20066;48.764;9.176;2024-02-26T10:32:46;96514.25;;;17.44;34.52
550;BME280;20066;48.764;9.176;2024-02-26T10:35:17;96515.50;;;17.78;34.80
550;BME280;20066;48.764;9.176;2024-02-26T10:37:47;96511.13;;;17.66;35.18
550;BME280;20066;48.764;9.176;2024-02-26T10:40:16;96502.88;;;18.10;34.98
550;BME280;20066;48.764;9.176;2024-02-26T10:42:44;96497.69;;;16.60;36.49
550;BME280;20066;48.764;9.176;2024-02-26T10:45:12;96502.44;;;17.32;36.33
550;BME280;20066;48.764;9.176;2024-02-26T10:47:41;96510.34;;;15.82;37.67
550;BME280;20066;48.764;9.176;2024-02-26T10:50:10;96513.06;;;15.40;38.63
550;BME280;20066;48.764;9.176;2024-02-26T10:52:42;96521.56;;;14.87;38.98
550;BME280;20066;48.764;9.176;2024-02-26T10:55:15;96514.78;;;14.46;40.05
550;BME280;20066;48.764;9.176;2024-02-26T10:57:45;96519.75;;;13.80;41.31
550;BME280;20066;48.764;9.176;2024-02-26T11:02:45;96505.22;;;15.42;38.64
550;BME280;20066;48.764;9.176;2024-02-26T11:05:19;96503.66;;;15.92;37.00
550;BME280;20066;48.764;9.176;2024-02-26T11:07:54;96509.50;;;16.86;35.93
550;BME280;20066;48.764;9.176;2024-02-26T11:10:24;96515.66;;;17.10;34.87
550;BME280;20066;48.764;9.176;2024-02-26T11:12:54;96529.75;;;16.23;36.27
550;BME280;20066;48.764;9.176;2024-02-26T11:15:23;96530.59;;;16.91;34.51
550;BME280;20066;48.764;9.176;2024-02-26T11:17:52;96527.00;;;15.57;37.15
550;BME280;20066;48.764;9.176;2024-02-26T11:20:21;96515.09;;;17.50;33.73
550;BME280;20066;48.764;9.176;2024-02-26T11:22:50;96516.75;;;18.32;33.17
550;BME280;20066;48.764;9.176;2024-02-26T11:25:20;96514.84;;;17.83;33.95
550;BME280;20066;48.764;9.176;2024-02-26T11:27:51;96519.63;;;15.99;37.45
550;BME280;20066;48.764;9.176;2024-02-26T11:30:21;96517.66;;;16.86;36.60
550;BME280;20066;48.764;9.176;2024-02-26T11:32:50;96518.00;;;17.47;34.47
550;BME280;20066;48.764;9.176;2024-02-26T11:35:19;96527.38;;;16.39;36.87
550;BME280;20066;48.764;9.176;2024-02-26T11:37:54;96524.72;;;17.66;35.43
550;BME280;20066;48.764;9.176;2024-02-26T11:40:25;96529.09;;;16.90;36.33
550;BME280;20066;48.764;9.176;2024-02-26T11:42:54;96522.16;;;16.74;36.26
550;BME280;20066;48.764;9.176;2024-02-26T11:45:52;96533.09;;;16.08;37.94
550;BME280;20066;48.764;9.176;2024-02-26T11:48:24;96527.66;;;16.41;37.28
550;BME280;20066;48.764;9.176;2024-02-26T11:50:54;96526.56;;;17.89;35.73
550;BME280;20066;48.764;9.176;2024-02-26T11:53:24;96531.69;;;18.02;35.27
550;BME280;20066;48.764;9.176;2024-02-26T11:56:22;96521.78;;;15.53;38.80
550;BME280;20066;48.764;9.176;2024-02-26T11:59:04;96524.59;;;14.80;39.95
550;BME280;20066;48.764;9.176;2024-02-26T12:01:44;96522.53;;;16.82;37.28
550;BME280;20066;48.764;9.176;2024-02-26T12:04:16;96520.66;;;15.18;39.44
550;BME280;20066;48.764;9.176;2024-02-26T12:06:47;96524.47;;;16.67;37.19
550;BME280;20066;48.764;9.176;2024-02-26T12:09:30;96521.94;;;16.78;37.12
550;BME280;20066;48.764;9.176;2024-02-26T12:12:01;96521.50;;;16.94;36.77
550;BME280;20066;48.764;9.176;2024-02-26T12:14:29;96528.81;;;16.49;37.46
550;BME280;20066;48.764;9.176;2024-02-26T12:17:00;96532.97;;;16.98;37.30
550;BME280;20066;48.764;9.176;2024-02-26T12:19:30;96542.03;;;16.56;37.98
550;BME280;20066;48.764;9.176;2024-02-26T12:21:58;96544.44;;;15.74;39.44
550;BME280;20066;48.764;9.176;2024-02-26T12:24:26;96545.22;;;15.98;39.29
550;BME280;20066;48.764;9.176;2024-02-26T12:26:54;96539.94;;;17.14;37.44
550;BME280;20066;48.764;9.176;2024-02-26T12:29:23;96546.53;;;16.03;38.91
550;BME280;20066;48.764;9.176;2024-02-26T12:31:51;96542.00;;;16.09;38.99
550;BME280;20066;48.764;9.176;2024-02-26T12:34:20;96548.13;;;15.53;39.76
550;BME280;20066;48.764;9.176;2024-02-26T12:36:49;96545.84;;;16.50;38.59
550;BME280;20066;48.764;9.176;2024-02-26T12:39:17;96541.69;;;16.64;38.21
550;BME280;20066;48.764;9.176;2024-02-26T12:41:46;96536.09;;;17.20;37.25
550;BME280;20066;48.764;9.176;2024-02-26T12:44:16;96541.53;;;16.19;39.34
550;BME280;20066;48.764;9.176;2024-02-26T12:46:45;96544.53;;;16.22;39.51
550;BME280;20066;48.764;9.176;2024-02-26T12:49:15;96539.25;;;17.48;37.12
550;BME280;20066;48.764;9.176;2024-02-26T12:51:44;96545.84;;;16.88;38.02
550;BME280;20066;48.764;9.176;2024-02-26T12:54:12;96543.03;;;17.36;37.41
550;BME280;20066;48.764;9.176;2024-02-26T12:56:41;96546.47;;;17.66;36.91
550;BME280;20066;48.764;9.176;2024-02-26T12:59:09;96553.16;;;16.82;38.54
550;BME280;20066;48.764;9.176;2024-02-26T13:01:37;96552.31;;;17.29;37.33
550;BME280;20066;48.764;9.176;2024-02-26T13:04:08;96552.69;;;17.52;36.86
550;BME280;20066;48.764;9.176;2024-02-26T13:06:37;96551.25;;;16.74;38.43
550;BME280;20066;48.764;9.176;2024-02-26T13:09:05;96549.47;;;16.47;38.40
550;BME280;20066;48.764;9.176;2024-02-26T13:11:34;96567.31;;;17.01;37.94
550;BME280;20066;48.764;9.176;2024-02-26T13:14:03;96556.81;;;16.94;37.77
550;BME280;20066;48.764;9.176;2024-02-26T13:16:34;96557.09;;;16.81;38.70
550;BME280;20066;48.764;9.176;2024-02-26T13:19:10;96558.66;;;17.12;38.69
550;BME280;20066;48.764;9.176;2024-02-26T13:21:39;96552.50;;;17.70;37.35
550;BME280;20066;48.764;9.176;2024-02-26T13:26:43;96561.59;;;17.38;37.36
550;BME280;20066;48.764;9.176;2024-02-26T13:29:16;96565.31;;;17.55;37.48
550;BME280;20066;48.764;9.176;2024-02-26T13:31:45;96558.84;;;16.46;38.76
550;BME280;20066;48.764;9.176;2024-02-26T13:34:24;96553.84;;;16.53;39.01
550;BME280;20066;48.764;9.176;2024-02-26T13:36:57;96556.72;;;16.50;39.03
550;BME280;20066;48.764;9.176;2024-02-26T13:39:29;96553.06;;;17.30;37.54